sensor_id;sensor_type;location;lat;lon;timestamp;temperature;humidity
4215;DHT22;2121;48.062;7.850;2023-07-24T00:02:07;18.50;99.90
4215;DHT22;2121;48.062;7.850;2023-07-24T00:04:33;18.50;99.90
4215;DHT22;2121;48.062;7.850;2023-07-24T00:06:59;18.50;99.90
4215;DHT22;2121;48.062;7.850;2023-07-24T00:09:26;18.40;99.90
4215;DHT22;2121;48.062;7.850;2023-07-24T00:11:51;18.40;99.90
4215;DHT22;2121;48.062;7.850;2023-07-24T00:14:17;18.40;99.90
4215;DHT22;2121;48.062;7.850;2023-07-24T00:16:43;18.40;99.90
4215;DHT22;2121;48.062;7.850;2023-07-24T00:19:09;18.30;99.90
4215;DHT22;2121;48.062;7.850;2023-07-24T00:21:35;18.30;99.90
4215;DHT22;2121;48.062;7.850;2023-07-24T00:24:00;18.20;99.90
4215;DHT22;2121;48.062;7.850;2023-07-24T00:26:26;18.10;99.90
4215;DHT22;2121;48.062;7.850;2023-07-24T00:28:52;18.00;99.90
4215;DHT22;2121;48.062;7.850;2023-07-24T00:31:17;17.90;99.90
4215;DHT22;2121;48.062;7.850;2023-07-24T00:33:43;17.80;99.90
4215;DHT22;2121;48.062;7.850;2023-07-24T00:36:09;17.70;99.90
4215;DHT22;2121;48.062;7.850;2023-07-24T00:38:35;17.60;99.90
4215;DHT22;2121;48.062;7.850;2023-07-24T00:41:00;17.60;99.90
4215;DHT22;2121;48.062;7.850;2023-07-24T00:43:26;17.60;99.90
4215;DHT22;2121;48.062;7.850;2023-07-24T00:45:52;17.60;99.90
4215;DHT22;2121;48.062;7.850;2023-07-24T00:48:19;17.60;99.90
4215;DHT22;2121;48.062;7.850;2023-07-24T00:50:45;17.50;99.90
4215;DHT22;2121;48.062;7.850;2023-07-24T00:53:11;17.50;99.90
4215;DHT22;2121;48.062;7.850;2023-07-24T00:55:39;17.60;99.90
4215;DHT22;2121;48.062;7.850;2023-07-24T00:58:05;17.60;99.90
4215;DHT22;2121;48.062;7.850;2023-07-24T01:00:31;17.50;99.90
4215;DHT22;2121;48.062;7.850;2023-07-24T01:02:59;17.60;99.90
4215;DHT22;2121;48.062;7.850;2023-07-24T01:05:25;17.60;99.90
4215;DHT22;2121;48.062;7.850;2023-07-24T01:07:52;17.50;99.90
4215;DHT22;2121;48.062;7.850;2023-07-24T01:10:18;17.30;99.90
4215;DHT22;2121;48.062;7.850;2023-07-24T01:15:33;17.10;99.90
4215;DHT22;2121;48.062;7.850;2023-07-24T01:18:10;17.10;99.90
4215;DHT22;2121;48.062;7.850;2023-07-24T01:20:40;17.10;99.90
4215;DHT22;2121;48.062;7.850;2023-07-24T01:23:29;17.10;99.90
4215;DHT22;2121;48.062;7.850;2023-07-24T01:26:06;17.20;99.90
4215;DHT22;2121;48.062;7.850;2023-07-24T01:28:33;17.20;99.90
4215;DHT22;2121;48.062;7.850;2023-07-24T01:30:59;17.20;99.90
4215;DHT22;2121;48.062;7.850;2023-07-24T01:33:25;17.20;99.90
4215;DHT22;2121;48.062;7.850;2023-07-24T01:35:55;17.20;99.90
4215;DHT22;2121;48.062;7.850;2023-07-24T01:38:24;17.30;99.90
4215;DHT22;2121;48.062;7.850;2023-07-24T01:40:52;17.40;99.90
4215;DHT22;2121;48.062;7.850;2023-07-24T01:43:19;17.50;99.90
4215;DHT22;2121;48.062;7.850;2023-07-24T01:45:45;17.70;99.90
4215;DHT22;2121;48.062;7.850;2023-07-24T01:48:10;17.70;99.90
4215;DHT22;2121;48.062;7.850;2023-07-24T01:50:36;17.70;99.90
4215;DHT22;2121;48.062;7.850;2023-07-24T01:53:02;17.80;99.90
4215;DHT22;2121;48.062;7.850;2023-07-24T01:55:28;17.70;99.90
4215;DHT22;2121;48.062;7.850;2023-07-24T01:57:53;17.80;99.90
4215;DHT22;2121;48.062;7.850;2023-07-24T02:00:19;17.80;99.90
4215;DHT22;2121;48.062;7.850;2023-07-24T02:02:45;17.80;99.90
4215;DHT22;2121;48.062;7.850;2023-07-24T02:05:11;17.80;99.90
4215;DHT22;2121;48.062;7.850;2023-07-24T02:07:37;17.90;99.90
4215;DHT22;2121;48.062;7.850;2023-07-24T02:10:03;18.00;99.90
4215;DHT22;2121;48.062;7.850;2023-07-24T02:12:29;18.00;99.90
4215;DHT22;2121;48.062;7.850;2023-07-24T02:14:55;18.00;99.90
4215;DHT22;2121;48.062;7.850;2023-07-24T02:17:21;18.00;99.90
4215;DHT22;2121;48.062;7.850;2023-07-24T02:19:48;17.80;99.90
4215;DHT22;2121;48.062;7.850;2023-07-24T02:22:15;17.70;99.90
4215;DHT22;2121;48.062;7.850;2023-07-24T02:24:41;17.70;99.90
4215;DHT22;2121;48.062;7.850;2023-07-24T02:27:07;17.70;99.90
4215;DHT22;2121;48.062;7.850;2023-07-24T02:29:33;17.70;99.90
4215;DHT22;2121;48.062;7.850;2023-07-24T02:31:59;17.70;99.90
4215;DHT22;2121;48.062;7.850;2023-07-24T02:34:25;17.80;99.90
4215;DHT22;2121;48.062;7.850;2023-07-24T02:36:53;17.80;99.90
4215;DHT22;2121;48.062;7.850;2023-07-24T02:39:19;17.80;99.90
4215;DHT22;2121;48.062;7.850;2023-07-24T02:41:45;17.80;99.90
4215;DHT22;2121;48.062;7.850;2023-07-24T02:44:13;17.80;99.90
4215;DHT22;2121;48.062;7.850;2023-07-24T02:46:38;17.80;99.90
4215;DHT22;2121;48.062;7.850;2023-07-24T02:49:04;17.80;99.90
4215;DHT22;2121;48.062;7.850;2023-07-24T02:51:31;17.70;99.90
4215;DHT22;2121;48.062;7.850;2023-07-24T02:53:56;17.70;99.90
4215;DHT22;2121;48.062;7.850;2023-07-24T02:56:22;17.60;99.90
4215;DHT22;2121;48.062;7.850;2023-07-24T02:58:48;17.50;99.90
4215;DHT22;2121;48.062;7.850;2023-07-24T03:01:14;17.50;99.90
4215;DHT22;2121;48.062;7.850;2023-07-24T03:03:40;17.50;99.90
4215;DHT22;2121;48.062;7.850;2023-07-24T03:06:06;17.40;99.90
4215;DHT22;2121;48.062;7.850;2023-07-24T03:08:33;17.40;99.90
4215;DHT22;2121;48.062;7.850;2023-07-24T03:10:59;17.50;99.90
4215;DHT22;2121;48.062;7.850;2023-07-24T03:13:25;17.60;99.90
4215;DHT22;2121;48.062;7.850;2023-07-24T03:15:52;17.50;99.90
4215;DHT22;2121;48.062;7.850;2023-07-24T03:18:22;17.60;99.90
4215;DHT22;2121;48.062;7.850;2023-07-24T03:20:48;17.70;99.90
4215;DHT22;2121;48.062;7.850;2023-07-24T03:23:14;17.70;99.90
4215;DHT22;2121;48.062;7.850;2023-07-24T03:25:40;17.70;99.90
4215;DHT22;2121;48.062;7.850;2023-07-24T03:28:06;17.60;99.90
4215;DHT22;2121;48.062;7.850;2023-07-24T03:30:32;17.60;99.90
4215;DHT22;2121;48.062;7.850;2023-07-24T03:32:58;17.60;99.90
4215;DHT22;2121;48.062;7.850;2023-07-24T03:35:24;17.60;99.90
4215;DHT22;2121;48.062;7.850;2023-07-24T03:37:49;17.60;99.90
4215;DHT22;2121;48.062;7.850;2023-07-24T03:40:15;17.50;99.90
4215;DHT22;2121;48.062;7.850;2023-07-24T03:42:41;17.60;99.90
4215;DHT22;2121;48.062;7.850;2023-07-24T03:45:07;17.60;99.90
4215;DHT22;2121;48.062;7.850;2023-07-24T03:47:33;17.60;99.90
4215;DHT22;2121;48.062;7.850;2023-07-24T03:49:59;17.60;99.90
4215;DHT22;2121;48.062;7.850;2023-07-24T03:52:25;17.60;99.90
4215;DHT22;2121;48.062;7.850;2023-07-24T03:54:52;17.60;99.90
4215;DHT22;2121;48.062;7.850;2023-07-24T03:57:18;17.80;99.90
4215;DHT22;2121;48.062;7.850;2023-07-24T03:59:44;17.90;99.90
4215;DHT22;2121;48.062;7.850;2023-07-24T04:02:10;17.80;99.90
4215;DHT22;2121;48.062;7.850;2023-07-24T04:04:36;17.70;99.90
4215;DHT22;2121;48.062;7.850;2023-07-24T04:07:02;17.60;99.90
4215;DHT22;2121;48.062;7.850;2023-07-24T04:09:28;17.50;99.90
4215;DHT22;2121;48.062;7.850;2023-07-24T04:11:54;17.40;99.90
4215;DHT22;2121;48.062;7.850;2023-07-24T04:14:20;17.40;99.90
4215;DHT22;2121;48.062;7.850;2023-07-24T04:16:45;17.30;99.90
4215;DHT22;2121;48.062;7.850;2023-07-24T04:19:11;17.30;99.90
4215;DHT22;2121;48.062;7.850;2023-07-24T04:21:37;17.30;99.90
4215;DHT22;2121;48.062;7.850;2023-07-24T04:24:03;17.40;99.90
4215;DHT22;2121;48.062;7.850;2023-07-24T04:26:29;17.40;99.90
4215;DHT22;2121;48.062;7.850;2023-07-24T04:28:54;17.50;99.90
4215;DHT22;2121;48.062;7.850;2023-07-24T04:31:20;17.50;99.90
4215;DHT22;2121;48.062;7.850;2023-07-24T04:33:46;17.40;99.90
4215;DHT22;2121;48.062;7.850;2023-07-24T04:36:12;17.40;99.90
4215;DHT22;2121;48.062;7.850;2023-07-24T04:38:37;17.40;99.90
4215;DHT22;2121;48.062;7.850;2023-07-24T04:41:03;17.40;99.90
4215;DHT22;2121;48.062;7.850;2023-07-24T04:43:29;17.50;99.90
4215;DHT22;2121;48.062;7.850;2023-07-24T04:45:55;17.50;99.90
4215;DHT22;2121;48.062;7.850;2023-07-24T04:48:21;17.60;99.90
4215;DHT22;2121;48.062;7.850;2023-07-24T04:50:46;17.70;99.90
4215;DHT22;2121;48.062;7.850;2023-07-24T04:53:12;17.70;99.90
4215;DHT22;2121;48.062;7.850;2023-07-24T04:55:38;17.70;99.90
4215;DHT22;2121;48.062;7.850;2023-07-24T04:58:04;17.90;99.90
4215;DHT22;2121;48.062;7.850;2023-07-24T05:00:29;17.90;99.90
4215;DHT22;2121;48.062;7.850;2023-07-24T05:02:55;17.80;99.90
4215;DHT22;2121;48.062;7.850;2023-07-24T05:05:21;17.70;99.90
4215;DHT22;2121;48.062;7.850;2023-07-24T05:07:46;17.50;99.90
4215;DHT22;2121;48.062;7.850;2023-07-24T05:10:12;17.50;99.90
4215;DHT22;2121;48.062;7.850;2023-07-24T05:12:41;17.40;99.90
4215;DHT22;2121;48.062;7.850;2023-07-24T05:15:08;17.40;99.90
4215;DHT22;2121;48.062;7.850;2023-07-24T05:17:34;17.40;99.90
4215;DHT22;2121;48.062;7.850;2023-07-24T05:19:59;17.50;99.90
4215;DHT22;2121;48.062;7.850;2023-07-24T05:22:25;17.70;99.90
4215;DHT22;2121;48.062;7.850;2023-07-24T05:24:51;17.70;99.90
4215;DHT22;2121;48.062;7.850;2023-07-24T05:27:17;17.70;99.90
4215;DHT22;2121;48.062;7.850;2023-07-24T05:29:42;17.70;99.90
4215;DHT22;2121;48.062;7.850;2023-07-24T05:32:08;17.80;99.90
4215;DHT22;2121;48.062;7.850;2023-07-24T05:34:34;17.90;99.90
4215;DHT22;2121;48.062;7.850;2023-07-24T05:37:00;17.90;99.90
4215;DHT22;2121;48.062;7.850;2023-07-24T05:39:25;18.00;99.90
4215;DHT22;2121;48.062;7.850;2023-07-24T05:41:51;18.10;99.90
4215;DHT22;2121;48.062;7.850;2023-07-24T05:44:17;18.10;99.90
4215;DHT22;2121;48.062;7.850;2023-07-24T05:46:42;18.10;99.90
4215;DHT22;2121;48.062;7.850;2023-07-24T05:49:08;18.20;99.90
4215;DHT22;2121;48.062;7.850;2023-07-24T05:51:34;18.30;99.90
4215;DHT22;2121;48.062;7.850;2023-07-24T05:53:59;18.50;99.90
4215;DHT22;2121;48.062;7.850;2023-07-24T05:56:25;18.80;99.90
4215;DHT22;2121;48.062;7.850;2023-07-24T05:58:51;18.90;99.90
4215;DHT22;2121;48.062;7.850;2023-07-24T06:01:17;19.00;99.90
4215;DHT22;2121;48.062;7.850;2023-07-24T06:03:42;19.10;99.90
4215;DHT22;2121;48.062;7.850;2023-07-24T06:06:08;19.20;99.90
4215;DHT22;2121;48.062;7.850;2023-07-24T06:08:33;19.30;99.90
4215;DHT22;2121;48.062;7.850;2023-07-24T06:10:59;19.30;99.90
4215;DHT22;2121;48.062;7.850;2023-07-24T06:13:25;19.50;99.90
4215;DHT22;2121;48.062;7.850;2023-07-24T06:15:52;19.60;99.90
4215;DHT22;2121;48.062;7.850;2023-07-24T06:18:17;19.80;99.90
4215;DHT22;2121;48.062;7.850;2023-07-24T06:20:43;20.10;99.90
4215;DHT22;2121;48.062;7.850;2023-07-24T06:23:09;20.30;99.90
4215;DHT22;2121;48.062;7.850;2023-07-24T06:25:35;20.60;99.90
4215;DHT22;2121;48.062;7.850;2023-07-24T06:28:01;20.90;99.90
4215;DHT22;2121;48.062;7.850;2023-07-24T06:30:26;21.20;99.90
4215;DHT22;2121;48.062;7.850;2023-07-24T06:32:52;21.50;99.90
4215;DHT22;2121;48.062;7.850;2023-07-24T06:35:18;21.70;99.90
4215;DHT22;2121;48.062;7.850;2023-07-24T06:37:44;21.70;99.90
4215;DHT22;2121;48.062;7.850;2023-07-24T06:40:10;21.80;99.90
4215;DHT22;2121;48.062;7.850;2023-07-24T06:42:36;21.60;99.90
4215;DHT22;2121;48.062;7.850;2023-07-24T06:45:02;21.60;99.90
4215;DHT22;2121;48.062;7.850;2023-07-24T06:47:28;21.60;99.90
4215;DHT22;2121;48.062;7.850;2023-07-24T06:49:54;21.60;99.90
4215;DHT22;2121;48.062;7.850;2023-07-24T06:52:20;21.60;99.90
4215;DHT22;2121;48.062;7.850;2023-07-24T06:54:45;21.70;99.90
4215;DHT22;2121;48.062;7.850;2023-07-24T06:57:11;21.70;99.90
4215;DHT22;2121;48.062;7.850;2023-07-24T06:59:37;21.60;99.90
4215;DHT22;2121;48.062;7.850;2023-07-24T07:02:03;21.50;99.90
4215;DHT22;2121;48.062;7.850;2023-07-24T07:04:29;21.40;99.90
4215;DHT22;2121;48.062;7.850;2023-07-24T07:06:54;21.50;99.90
4215;DHT22;2121;48.062;7.850;2023-07-24T07:09:20;21.60;99.90
4215;DHT22;2121;48.062;7.850;2023-07-24T07:11:46;21.80;99.90
4215;DHT22;2121;48.062;7.850;2023-07-24T07:14:12;21.90;99.90
4215;DHT22;2121;48.062;7.850;2023-07-24T07:16:38;22.10;99.90
4215;DHT22;2121;48.062;7.850;2023-07-24T07:19:04;22.50;99.90
4215;DHT22;2121;48.062;7.850;2023-07-24T07:21:29;22.90;99.90
4215;DHT22;2121;48.062;7.850;2023-07-24T07:23:55;23.00;99.90
4215;DHT22;2121;48.062;7.850;2023-07-24T07:26:21;23.10;99.90
4215;DHT22;2121;48.062;7.850;2023-07-24T07:28:47;23.10;99.90
4215;DHT22;2121;48.062;7.850;2023-07-24T07:31:13;22.90;99.90
4215;DHT22;2121;48.062;7.850;2023-07-24T07:33:39;22.80;99.90
4215;DHT22;2121;48.062;7.850;2023-07-24T07:36:05;22.50;99.90
4215;DHT22;2121;48.062;7.850;2023-07-24T07:38:31;21.70;99.90
4215;DHT22;2121;48.062;7.850;2023-07-24T07:40:58;20.90;99.90
4215;DHT22;2121;48.062;7.850;2023-07-24T07:43:23;20.50;99.90
4215;DHT22;2121;48.062;7.850;2023-07-24T07:45:49;20.10;99.90
4215;DHT22;2121;48.062;7.850;2023-07-24T07:48:15;19.80;99.90
4215;DHT22;2121;48.062;7.850;2023-07-24T07:50:41;19.60;99.90
4215;DHT22;2121;48.062;7.850;2023-07-24T07:53:06;19.60;99.90
4215;DHT22;2121;48.062;7.850;2023-07-24T07:55:32;19.40;99.90
4215;DHT22;2121;48.062;7.850;2023-07-24T07:57:58;19.40;99.90
4215;DHT22;2121;48.062;7.850;2023-07-24T08:00:24;19.30;99.90
4215;DHT22;2121;48.062;7.850;2023-07-24T08:02:49;19.30;99.90
4215;DHT22;2121;48.062;7.850;2023-07-24T08:05:15;19.20;99.90
4215;DHT22;2121;48.062;7.850;2023-07-24T08:07:41;19.10;99.90
4215;DHT22;2121;48.062;7.850;2023-07-24T08:10:07;19.10;99.90
4215;DHT22;2121;48.062;7.850;2023-07-24T08:12:33;19.00;99.90
4215;DHT22;2121;48.062;7.850;2023-07-24T08:14:59;19.10;99.90
4215;DHT22;2121;48.062;7.850;2023-07-24T08:17:25;19.20;99.90
4215;DHT22;2121;48.062;7.850;2023-07-24T08:19:51;19.30;99.90
4215;DHT22;2121;48.062;7.850;2023-07-24T08:22:17;19.50;99.90
4215;DHT22;2121;48.062;7.850;2023-07-24T08:24:45;19.90;99.90
4215;DHT22;2121;48.062;7.850;2023-07-24T08:27:11;20.30;99.90
4215;DHT22;2121;48.062;7.850;2023-07-24T08:29:36;20.70;99.90
4215;DHT22;2121;48.062;7.850;2023-07-24T08:32:04;20.90;99.90
4215;DHT22;2121;48.062;7.850;2023-07-24T08:34:30;20.80;99.90
4215;DHT22;2121;48.062;7.850;2023-07-24T08:36:56;20.70;99.90
4215;DHT22;2121;48.062;7.850;2023-07-24T08:39:21;20.40;99.90
4215;DHT22;2121;48.062;7.850;2023-07-24T08:41:47;20.20;99.90
4215;DHT22;2121;48.062;7.850;2023-07-24T08:44:13;20.20;99.90
4215;DHT22;2121;48.062;7.850;2023-07-24T08:46:39;20.30;99.90
4215;DHT22;2121;48.062;7.850;2023-07-24T08:49:12;20.20;99.90
4215;DHT22;2121;48.062;7.850;2023-07-24T08:51:40;20.20;99.90
4215;DHT22;2121;48.062;7.850;2023-07-24T08:54:07;20.20;99.90
4215;DHT22;2121;48.062;7.850;2023-07-24T08:56:33;20.20;99.90
4215;DHT22;2121;48.062;7.850;2023-07-24T08:58:59;20.20;99.90
4215;DHT22;2121;48.062;7.850;2023-07-24T09:01:25;20.00;99.90
4215;DHT22;2121;48.062;7.850;2023-07-24T09:03:51;19.80;99.90
4215;DHT22;2121;48.062;7.850;2023-07-24T09:06:16;19.50;99.90
4215;DHT22;2121;48.062;7.850;2023-07-24T09:08:43;19.30;99.90
4215;DHT22;2121;48.062;7.850;2023-07-24T09:11:10;19.30;99.90
4215;DHT22;2121;48.062;7.850;2023-07-24T09:13:41;19.30;99.90
4215;DHT22;2121;48.062;7.850;2023-07-24T09:16:08;19.30;99.90
4215;DHT22;2121;48.062;7.850;2023-07-24T09:18:41;19.10;99.90
4215;DHT22;2121;48.062;7.850;2023-07-24T09:21:10;19.10;99.90
4215;DHT22;2121;48.062;7.850;2023-07-24T09:23:37;18.90;99.90
4215;DHT22;2121;48.062;7.850;2023-07-24T09:26:07;18.70;99.90
4215;DHT22;2121;48.062;7.850;2023-07-24T09:28:34;18.60;99.90
4215;DHT22;2121;48.062;7.850;2023-07-24T09:31:00;18.40;99.90
4215;DHT22;2121;48.062;7.850;2023-07-24T09:33:37;18.20;99.90
4215;DHT22;2121;48.062;7.850;2023-07-24T09:36:06;18.00;99.90
4215;DHT22;2121;48.062;7.850;2023-07-24T09:38:34;17.80;99.90
4215;DHT22;2121;48.062;7.850;2023-07-24T09:41:02;17.80;99.90
4215;DHT22;2121;48.062;7.850;2023-07-24T09:43:29;17.80;99.90
4215;DHT22;2121;48.062;7.850;2023-07-24T09:45:56;17.90;99.90
4215;DHT22;2121;48.062;7.850;2023-07-24T09:48:25;18.00;99.90
4215;DHT22;2121;48.062;7.850;2023-07-24T09:50:56;18.00;99.90
4215;DHT22;2121;48.062;7.850;2023-07-24T09:56:27;18.00;99.90
4215;DHT22;2121;48.062;7.850;2023-07-24T09:58:54;18.00;99.90
4215;DHT22;2121;48.062;7.850;2023-07-24T10:01:21;18.10;99.90
4215;DHT22;2121;48.062;7.850;2023-07-24T10:03:49;18.10;99.90
4215;DHT22;2121;48.062;7.850;2023-07-24T10:06:16;18.10;99.90
4215;DHT22;2121;48.062;7.850;2023-07-24T10:08:42;18.00;99.90
4215;DHT22;2121;48.062;7.850;2023-07-24T10:11:11;18.10;99.90
4215;DHT22;2121;48.062;7.850;2023-07-24T10:13:38;18.00;99.90
4215;DHT22;2121;48.062;7.850;2023-07-24T10:16:05;18.00;99.90
4215;DHT22;2121;48.062;7.850;2023-07-24T10:18:33;18.00;99.90
4215;DHT22;2121;48.062;7.850;2023-07-24T10:23:28;17.80;99.90
4215;DHT22;2121;48.062;7.850;2023-07-24T10:25:53;17.80;99.90
4215;DHT22;2121;48.062;7.850;2023-07-24T10:28:29;17.70;99.90
4215;DHT22;2121;48.062;7.850;2023-07-24T10:31:00;17.70;99.90
4215;DHT22;2121;48.062;7.850;2023-07-24T10:33:30;18.00;99.90
4215;DHT22;2121;48.062;7.850;2023-07-24T10:36:10;18.30;99.90
4215;DHT22;2121;48.062;7.850;2023-07-24T10:38:40;18.60;99.90
4215;DHT22;2121;48.062;7.850;2023-07-24T10:41:08;18.80;99.90
4215;DHT22;2121;48.062;7.850;2023-07-24T10:43:42;19.10;99.90
4215;DHT22;2121;48.062;7.850;2023-07-24T10:46:13;19.60;99.90
4215;DHT22;2121;48.062;7.850;2023-07-24T10:48:44;19.80;99.90
4215;DHT22;2121;48.062;7.850;2023-07-24T10:51:11;20.10;99.90
4215;DHT22;2121;48.062;7.850;2023-07-24T10:53:44;20.60;99.90
4215;DHT22;2121;48.062;7.850;2023-07-24T10:56:14;21.30;99.90
4215;DHT22;2121;48.062;7.850;2023-07-24T10:58:41;22.20;99.90
4215;DHT22;2121;48.062;7.850;2023-07-24T11:01:08;22.90;99.90
4215;DHT22;2121;48.062;7.850;2023-07-24T11:03:36;23.10;99.90
4215;DHT22;2121;48.062;7.850;2023-07-24T11:06:03;23.40;99.90
4215;DHT22;2121;48.062;7.850;2023-07-24T11:08:30;23.80;99.90
4215;DHT22;2121;48.062;7.850;2023-07-24T11:10:57;24.00;99.90
4215;DHT22;2121;48.062;7.850;2023-07-24T11:13:27;24.00;99.90
4215;DHT22;2121;48.062;7.850;2023-07-24T11:15:54;24.10;99.90
4215;DHT22;2121;48.062;7.850;2023-07-24T11:18:21;24.00;99.90
4215;DHT22;2121;48.062;7.850;2023-07-24T11:20:53;23.90;99.90
4215;DHT22;2121;48.062;7.850;2023-07-24T11:23:21;24.00;99.90
4215;DHT22;2121;48.062;7.850;2023-07-24T11:25:50;24.10;99.90
4215;DHT22;2121;48.062;7.850;2023-07-24T11:28:17;24.40;99.90
4215;DHT22;2121;48.062;7.850;2023-07-24T11:30:43;24.50;99.90
4215;DHT22;2121;48.062;7.850;2023-07-24T11:33:11;24.20;99.90
4215;DHT22;2121;48.062;7.850;2023-07-24T11:35:38;24.10;99.90
4215;DHT22;2121;48.062;7.850;2023-07-24T11:38:06;24.60;99.90
4215;DHT22;2121;48.062;7.850;2023-07-24T11:40:41;24.80;99.90
4215;DHT22;2121;48.062;7.850;2023-07-24T11:43:19;24.70;99.90
4215;DHT22;2121;48.062;7.850;2023-07-24T11:45:46;24.00;99.90
4215;DHT22;2121;48.062;7.850;2023-07-24T11:48:14;23.50;99.90
4215;DHT22;2121;48.062;7.850;2023-07-24T11:50:45;23.30;99.90
4215;DHT22;2121;48.062;7.850;2023-07-24T11:53:31;22.60;99.90
4215;DHT22;2121;48.062;7.850;2023-07-24T11:55:58;22.10;99.90
4215;DHT22;2121;48.062;7.850;2023-07-24T11:58:29;22.20;99.90
4215;DHT22;2121;48.062;7.850;2023-07-24T12:00:56;22.30;99.90
4215;DHT22;2121;48.062;7.850;2023-07-24T12:03:26;22.40;99.90
4215;DHT22;2121;48.062;7.850;2023-07-24T12:05:52;23.00;99.90
4215;DHT22;2121;48.062;7.850;2023-07-24T12:08:33;23.50;99.90
4215;DHT22;2121;48.062;7.850;2023-07-24T12:11:00;23.50;99.90
4215;DHT22;2121;48.062;7.850;2023-07-24T12:13:26;23.30;99.90
4215;DHT22;2121;48.062;7.850;2023-07-24T12:15:52;23.00;99.90
4215;DHT22;2121;48.062;7.850;2023-07-24T12:18:18;22.40;99.90
4215;DHT22;2121;48.062;7.850;2023-07-24T12:20:44;22.30;99.90
4215;DHT22;2121;48.062;7.850;2023-07-24T12:23:09;22.40;99.90
4215;DHT22;2121;48.062;7.850;2023-07-24T12:25:35;22.50;99.90
4215;DHT22;2121;48.062;7.850;2023-07-24T12:28:01;22.40;99.90
4215;DHT22;2121;48.062;7.850;2023-07-24T12:30:27;22.30;99.90
4215;DHT22;2121;48.062;7.850;2023-07-24T12:32:52;22.40;99.90
4215;DHT22;2121;48.062;7.850;2023-07-24T12:35:18;23.10;99.90
4215;DHT22;2121;48.062;7.850;2023-07-24T12:37:44;23.90;99.90
4215;DHT22;2121;48.062;7.850;2023-07-24T12:40:11;24.80;99.90
4215;DHT22;2121;48.062;7.850;2023-07-24T12:42:37;24.80;99.90
4215;DHT22;2121;48.062;7.850;2023-07-24T12:45:03;24.40;99.90
4215;DHT22;2121;48.062;7.850;2023-07-24T12:47:31;24.10;99.90
4215;DHT22;2121;48.062;7.850;2023-07-24T12:49:57;23.70;99.90
4215;DHT22;2121;48.062;7.850;2023-07-24T12:52:24;23.40;99.90
4215;DHT22;2121;48.062;7.850;2023-07-24T12:54:51;23.60;99.90
4215;DHT22;2121;48.062;7.850;2023-07-24T12:57:17;23.30;99.90
4215;DHT22;2121;48.062;7.850;2023-07-24T12:59:42;22.90;99.90
4215;DHT22;2121;48.062;7.850;2023-07-24T13:02:08;22.50;99.90
4215;DHT22;2121;48.062;7.850;2023-07-24T13:04:34;22.30;99.90
4215;DHT22;2121;48.062;7.850;2023-07-24T13:07:00;22.20;99.90
4215;DHT22;2121;48.062;7.850;2023-07-24T13:09:26;22.00;99.90
4215;DHT22;2121;48.062;7.850;2023-07-24T13:11:53;22.20;99.90
4215;DHT22;2121;48.062;7.850;2023-07-24T13:14:20;22.00;99.90
4215;DHT22;2121;48.062;7.850;2023-07-24T13:16:46;22.00;99.90
4215;DHT22;2121;48.062;7.850;2023-07-24T13:19:12;22.00;99.90
4215;DHT22;2121;48.062;7.850;2023-07-24T13:21:38;22.20;99.90
4215;DHT22;2121;48.062;7.850;2023-07-24T13:24:05;22.30;99.90
4215;DHT22;2121;48.062;7.850;2023-07-24T13:26:32;22.40;99.90
4215;DHT22;2121;48.062;7.850;2023-07-24T13:28:58;22.20;99.90
4215;DHT22;2121;48.062;7.850;2023-07-24T13:31:24;21.90;99.90
4215;DHT22;2121;48.062;7.850;2023-07-24T13:33:49;21.40;99.90
4215;DHT22;2121;48.062;7.850;2023-07-24T13:36:15;21.20;99.90
4215;DHT22;2121;48.062;7.850;2023-07-24T13:38:41;21.10;99.90
4215;DHT22;2121;48.062;7.850;2023-07-24T13:41:07;21.00;99.90
4215;DHT22;2121;48.062;7.850;2023-07-24T13:43:36;21.50;99.90
4215;DHT22;2121;48.062;7.850;2023-07-24T13:46:02;21.70;99.90
4215;DHT22;2121;48.062;7.850;2023-07-24T13:48:32;21.40;99.90
4215;DHT22;2121;48.062;7.850;2023-07-24T13:50:58;21.30;99.90
4215;DHT22;2121;48.062;7.850;2023-07-24T13:53:24;22.50;99.90
4215;DHT22;2121;48.062;7.850;2023-07-24T13:55:50;23.70;99.90
4215;DHT22;2121;48.062;7.850;2023-07-24T13:58:16;23.40;99.90
4215;DHT22;2121;48.062;7.850;2023-07-24T14:00:42;22.50;99.90
4215;DHT22;2121;48.062;7.850;2023-07-24T14:03:07;22.00;99.90
4215;DHT22;2121;48.062;7.850;2023-07-24T14:05:36;21.90;99.90
4215;DHT22;2121;48.062;7.850;2023-07-24T14:08:02;21.70;99.90
4215;DHT22;2121;48.062;7.850;2023-07-24T14:10:29;21.70;99.90
4215;DHT22;2121;48.062;7.850;2023-07-24T14:12:54;21.90;99.90
4215;DHT22;2121;48.062;7.850;2023-07-24T14:15:20;22.30;99.90
4215;DHT22;2121;48.062;7.850;2023-07-24T14:17:46;22.60;99.90
4215;DHT22;2121;48.062;7.850;2023-07-24T14:20:12;23.00;99.90
4215;DHT22;2121;48.062;7.850;2023-07-24T14:22:38;23.40;99.90
4215;DHT22;2121;48.062;7.850;2023-07-24T14:25:03;24.20;99.90
4215;DHT22;2121;48.062;7.850;2023-07-24T14:27:31;24.20;99.90
4215;DHT22;2121;48.062;7.850;2023-07-24T14:29:57;24.30;99.90
4215;DHT22;2121;48.062;7.850;2023-07-24T14:32:22;25.30;99.90
4215;DHT22;2121;48.062;7.850;2023-07-24T14:34:51;25.60;99.90
4215;DHT22;2121;48.062;7.850;2023-07-24T14:37:18;25.80;99.90
4215;DHT22;2121;48.062;7.850;2023-07-24T14:39:44;26.50;99.90
4215;DHT22;2121;48.062;7.850;2023-07-24T14:42:10;28.30;99.90
4215;DHT22;2121;48.062;7.850;2023-07-24T14:44:36;30.60;97.70
4215;DHT22;2121;48.062;7.850;2023-07-24T14:47:02;31.70;95.70
4215;DHT22;2121;48.062;7.850;2023-07-24T14:49:28;32.20;94.60
4215;DHT22;2121;48.062;7.850;2023-07-24T14:51:54;31.30;93.40
4215;DHT22;2121;48.062;7.850;2023-07-24T14:54:19;31.10;94.30
4215;DHT22;2121;48.062;7.850;2023-07-24T14:56:45;29.70;95.10
4215;DHT22;2121;48.062;7.850;2023-07-24T14:59:11;28.40;96.00
4215;DHT22;2121;48.062;7.850;2023-07-24T15:01:36;27.80;97.60
4215;DHT22;2121;48.062;7.850;2023-07-24T15:04:02;27.40;98.30
4215;DHT22;2121;48.062;7.850;2023-07-24T15:06:28;26.90;98.90
4215;DHT22;2121;48.062;7.850;2023-07-24T15:08:54;26.70;99.90
4215;DHT22;2121;48.062;7.850;2023-07-24T15:11:22;26.20;99.50
4215;DHT22;2121;48.062;7.850;2023-07-24T15:13:54;25.70;99.90
4215;DHT22;2121;48.062;7.850;2023-07-24T15:16:22;26.10;99.90
4215;DHT22;2121;48.062;7.850;2023-07-24T15:18:48;27.50;98.70
4215;DHT22;2121;48.062;7.850;2023-07-24T15:21:14;26.80;98.60
4215;DHT22;2121;48.062;7.850;2023-07-24T15:23:40;26.40;99.20
4215;DHT22;2121;48.062;7.850;2023-07-24T15:26:05;25.60;99.90
4215;DHT22;2121;48.062;7.850;2023-07-24T15:28:31;25.50;99.90
4215;DHT22;2121;48.062;7.850;2023-07-24T15:30:57;25.20;99.90
4215;DHT22;2121;48.062;7.850;2023-07-24T15:33:23;25.40;99.90
4215;DHT22;2121;48.062;7.850;2023-07-24T15:35:49;26.00;99.90
4215;DHT22;2121;48.062;7.850;2023-07-24T15:38:15;26.30;99.90
4215;DHT22;2121;48.062;7.850;2023-07-24T15:40:41;26.10;99.90
4215;DHT22;2121;48.062;7.850;2023-07-24T15:43:07;26.10;99.90
4215;DHT22;2121;48.062;7.850;2023-07-24T15:45:32;25.80;99.90
4215;DHT22;2121;48.062;7.850;2023-07-24T15:47:58;26.30;99.90
4215;DHT22;2121;48.062;7.850;2023-07-24T15:50:24;28.30;98.80
4215;DHT22;2121;48.062;7.850;2023-07-24T15:52:50;29.60;96.80
4215;DHT22;2121;48.062;7.850;2023-07-24T15:55:15;31.70;95.40
4215;DHT22;2121;48.062;7.850;2023-07-24T15:57:41;32.10;93.40
4215;DHT22;2121;48.062;7.850;2023-07-24T16:00:07;32.50;93.50
4215;DHT22;2121;48.062;7.850;2023-07-24T16:02:34;33.60;91.90
4215;DHT22;2121;48.062;7.850;2023-07-24T16:05:15;33.50;90.80
4215;DHT22;2121;48.062;7.850;2023-07-24T16:07:44;32.30;91.80